sensor_id;sensor_type;location;lat;lon;timestamp;pressure;altitude;pressure_sealevel;temperature;humidity
8334;BME280;4204;43.004;23.052;2023-02-14T00:00:00;95165.25;;;-3.34;100.00
8334;BME280;4204;43.004;23.052;2023-02-14T00:02:34;95164.59;;;-3.43;100.00
8334;BME280;4204;43.004;23.052;2023-02-14T00:05:02;95171.03;;;-3.39;100.00
8334;BME280;4204;43.004;23.052;2023-02-14T00:07:30;95168.81;;;-3.35;100.00
8334;BME280;4204;43.004;23.052;2023-02-14T00:09:58;95161.63;;;-3.33;100.00
8334;BME280;4204;43.004;23.052;2023-02-14T00:12:27;95157.47;;;-3.28;100.00
8334;BME280;4204;43.004;23.052;2023-02-14T00:14:54;95161.72;;;-3.13;100.00
8334;BME280;4204;43.004;23.052;2023-02-14T00:17:39;95165.91;;;-3.19;100.00
8334;BME280;4204;43.004;23.052;2023-02-14T00:20:08;95157.09;;;-3.18;100.00
8334;BME280;4204;43.004;23.052;2023-02-14T00:22:36;95157.53;;;-3.01;100.00
8334;BME280;4204;43.004;23.052;2023-02-14T00:25:04;95158.94;;;-3.05;100.00
8334;BME280;4204;43.004;23.052;2023-02-14T00:27:33;95152.56;;;-2.83;100.00
8334;BME280;4204;43.004;23.052;2023-02-14T00:30:01;95160.78;;;-2.86;100.00
8334;BME280;4204;43.004;23.052;2023-02-14T00:32:31;95148.97;;;-2.82;100.00
8334;BME280;4204;43.004;23.052;2023-02-14T00:34:58;95145.56;;;-2.76;100.00
8334;BME280;4204;43.004;23.052;2023-02-14T00:37:27;95145.38;;;-2.62;100.00
8334;BME280;4204;43.004;23.052;2023-02-14T00:39:54;95146.38;;;-2.56;100.00
8334;BME280;4204;43.004;23.052;2023-02-14T00:42:22;95143.38;;;-2.66;100.00
8334;BME280;4204;43.004;23.052;2023-02-14T00:44:51;95136.19;;;-2.51;100.00
8334;BME280;4204;43.004;23.052;2023-02-14T00:47:19;95133.97;;;-2.41;100.00
8334;BME280;4204;43.004;23.052;2023-02-14T00:49:47;95129.78;;;-2.49;100.00
8334;BME280;4204;43.004;23.052;2023-02-14T00:52:15;95137.97;;;-2.58;100.00
8334;BME280;4204;43.004;23.052;2023-02-14T00:54:42;95121.16;;;-2.49;100.00
8334;BME280;4204;43.004;23.052;2023-02-14T00:57:10;95116.31;;;-2.59;100.00
8334;BME280;4204;43.004;23.052;2023-02-14T00:59:38;95107.31;;;-2.43;100.00
8334;BME280;4204;43.004;23.052;2023-02-14T01:02:07;95120.53;;;-2.31;100.00
8334;BME280;4204;43.004;23.052;2023-02-14T01:04:34;95107.31;;;-2.43;100.00
8334;BME280;4204;43.004;23.052;2023-02-14T01:07:02;95121.16;;;-2.49;100.00
8334;BME280;4204;43.004;23.052;2023-02-14T01:09:30;95105.91;;;-2.26;100.00
8334;BME280;4204;43.004;23.052;2023-02-14T01:12:01;95106.91;;;-2.27;100.00
8334;BME280;4204;43.004;23.052;2023-02-14T01:14:29;95105.28;;;-2.21;100.00
8334;BME280;4204;43.004;23.052;2023-02-14T01:16:57;95103.53;;;-2.34;100.00
8334;BME280;4204;43.004;23.052;2023-02-14T01:19:26;95103.31;;;-2.26;100.00
8334;BME280;4204;43.004;23.052;2023-02-14T01:21:53;95094.91;;;-2.41;100.00
8334;BME280;4204;43.004;23.052;2023-02-14T01:24:22;95097.31;;;-2.59;100.00
8334;BME280;4204;43.004;23.052;2023-02-14T01:26:50;95094.72;;;-2.59;100.00
8334;BME280;4204;43.004;23.052;2023-02-14T01:29:17;95097.88;;;-2.37;100.00
8334;BME280;4204;43.004;23.052;2023-02-14T01:31:45;95090.06;;;-2.18;100.00
8334;BME280;4204;43.004;23.052;2023-02-14T01:34:14;95083.22;;;-2.12;100.00
8334;BME280;4204;43.004;23.052;2023-02-14T01:36:43;95086.78;;;-1.94;100.00
8334;BME280;4204;43.004;23.052;2023-02-14T01:39:12;95092.00;;;-1.87;100.00
8334;BME280;4204;43.004;23.052;2023-02-14T01:41:45;95089.59;;;-1.82;100.00
8334;BME280;4204;43.004;23.052;2023-02-14T01:44:53;95080.59;;;-1.48;100.00
8334;BME280;4204;43.004;23.052;2023-02-14T01:47:22;95075.84;;;-1.58;100.00
8334;BME280;4204;43.004;23.052;2023-02-14T01:49:52;95084.84;;;-1.47;100.00
8334;BME280;4204;43.004;23.052;2023-02-14T01:52:25;95084.09;;;-1.23;100.00
8334;BME280;4204;43.004;23.052;2023-02-14T01:54:57;95071.13;;;-1.05;100.00
8334;BME280;4204;43.004;23.052;2023-02-14T01:57:31;95079.75;;;-0.98;100.00
8334;BME280;4204;43.004;23.052;2023-02-14T02:00:01;95072.16;;;-1.06;100.00
8334;BME280;4204;43.004;23.052;2023-02-14T02:02:43;95077.78;;;-1.09;100.00
8334;BME280;4204;43.004;23.052;2023-02-14T02:05:12;95059.38;;;-1.14;100.00
8334;BME280;4204;43.004;23.052;2023-02-14T02:07:42;95062.97;;;-1.15;100.00
8334;BME280;4204;43.004;23.052;2023-02-14T02:10:10;95071.09;;;-1.30;100.00
8334;BME280;4204;43.004;23.052;2023-02-14T02:12:38;95073.94;;;-1.38;100.00
8334;BME280;4204;43.004;23.052;2023-02-14T02:15:06;95071.88;;;-1.29;100.00
8334;BME280;4204;43.004;23.052;2023-02-14T02:17:43;95059.84;;;-1.30;100.00
8334;BME280;4204;43.004;23.052;2023-02-14T02:23:44;95050.78;;;-1.28;100.00
8334;BME280;4204;43.004;23.052;2023-02-14T02:29:36;95020.69;;;-1.30;100.00
8334;BME280;4204;43.004;23.052;2023-02-14T02:32:42;95039.91;;;-1.18;100.00
8334;BME280;4204;43.004;23.052;2023-02-14T02:35:24;95038.56;;;-1.27;100.00
8334;BME280;4204;43.004;23.052;2023-02-14T02:38:05;95050.84;;;-1.03;100.00
8334;BME280;4204;43.004;23.052;2023-02-14T02:40:46;95053.31;;;-0.84;100.00
8334;BME280;4204;43.004;23.052;2023-02-14T02:43:25;95062.16;;;-0.60;100.00
8334;BME280;4204;43.004;23.052;2023-02-14T02:45:59;95050.06;;;-0.30;100.00
8334;BME280;4204;43.004;23.052;2023-02-14T02:48:48;95048.09;;;-0.16;100.00
8334;BME280;4204;43.004;23.052;2023-02-14T02:51:27;95055.47;;;0.12;100.00
8334;BME280;4204;43.004;23.052;2023-02-14T02:54:19;95042.94;;;0.32;100.00
8334;BME280;4204;43.004;23.052;2023-02-14T02:56:54;95041.28;;;0.37;100.00
8334;BME280;4204;43.004;23.052;2023-02-14T02:59:26;95051.16;;;0.53;100.00
8334;BME280;4204;43.004;23.052;2023-02-14T03:02:06;95043.34;;;0.65;100.00
8334;BME280;4204;43.004;23.052;2023-02-14T03:04:40;95036.88;;;0.67;100.00
8334;BME280;4204;43.004;23.052;2023-02-14T03:07:29;95039.91;;;0.82;100.00
8334;BME280;4204;43.004;23.052;2023-02-14T03:10:10;95029.84;;;0.79;100.00
8334;BME280;4204;43.004;23.052;2023-02-14T03:18:43;95020.19;;;0.80;100.00
8334;BME280;4204;43.004;23.052;2023-02-14T03:21:44;95018.22;;;0.75;100.00
8334;BME280;4204;43.004;23.052;2023-02-14T03:24:18;95020.94;;;0.69;100.00
8334;BME280;4204;43.004;23.052;2023-02-14T03:26:56;95012.72;;;0.65;100.00
8334;BME280;4204;43.004;23.052;2023-02-14T03:29:32;95018.78;;;0.66;100.00
8334;BME280;4204;43.004;23.052;2023-02-14T03:32:11;95015.13;;;0.67;100.00
8334;BME280;4204;43.004;23.052;2023-02-14T03:34:47;95010.91;;;0.66;100.00
8334;BME280;4204;43.004;23.052;2023-02-14T03:37:22;95013.00;;;0.75;100.00
8334;BME280;4204;43.004;23.052;2023-02-14T03:39:59;95009.72;;;0.80;100.00
8334;BME280;4204;43.004;23.052;2023-02-14T03:42:35;95002.28;;;0.77;100.00
8334;BME280;4204;43.004;23.052;2023-02-14T03:45:08;94981.22;;;0.72;100.00
8334;BME280;4204;43.004;23.052;2023-02-14T03:47:39;94981.47;;;0.82;100.00
8334;BME280;4204;43.004;23.052;2023-02-14T03:50:13;94984.09;;;0.82;100.00
8334;BME280;4204;43.004;23.052;2023-02-14T03:52:43;94987.41;;;0.89;100.00
8334;BME280;4204;43.004;23.052;2023-02-14T03:55:16;94987.88;;;0.86;100.00
8334;BME280;4204;43.004;23.052;2023-02-14T03:57:51;94992.78;;;0.94;100.00
8334;BME280;4204;43.004;23.052;2023-02-14T04:00:20;94996.97;;;0.83;100.00
8334;BME280;4204;43.004;23.052;2023-02-14T04:02:52;94988.81;;;1.15;100.00
8334;BME280;4204;43.004;23.052;2023-02-14T04:05:24;94998.97;;;1.23;100.00
8334;BME280;4204;43.004;23.052;2023-02-14T04:07:54;95004.41;;;1.10;100.00
8334;BME280;4204;43.004;23.052;2023-02-14T04:10:24;94997.44;;;1.04;100.00
8334;BME280;4204;43.004;23.052;2023-02-14T04:12:52;94983.78;;;0.90;100.00
8334;BME280;4204;43.004;23.052;2023-02-14T04:15:20;94983.78;;;0.90;100.00
8334;BME280;4204;43.004;23.052;2023-02-14T04:17:48;94984.44;;;0.86;100.00
8334;BME280;4204;43.004;23.052;2023-02-14T04:20:33;94989.66;;;0.74;100.00
8334;BME280;4204;43.004;23.052;2023-02-14T04:23:00;94993.84;;;0.75;100.00
8334;BME280;4204;43.004;23.052;2023-02-14T04:25:29;94983.38;;;0.75;100.00
8334;BME280;4204;43.004;23.052;2023-02-14T04:27:57;94984.28;;;0.69;100.00
8334;BME280;4204;43.004;23.052;2023-02-14T04:30:25;94979.28;;;0.67;100.00
8334;BME280;4204;43.004;23.052;2023-02-14T04:32:52;94974.84;;;0.68;100.00
8334;BME280;4204;43.004;23.052;2023-02-14T04:35:20;94966.84;;;0.63;100.00
8334;BME280;4204;43.004;23.052;2023-02-14T04:37:48;94955.22;;;0.59;100.00
8334;BME280;4204;43.004;23.052;2023-02-14T04:40:15;94946.38;;;0.60;100.00
8334;BME280;4204;43.004;23.052;2023-02-14T04:42:45;94944.66;;;0.65;100.00
8334;BME280;4204;43.004;23.052;2023-02-14T04:45:13;94931.09;;;0.68;100.00
8334;BME280;4204;43.004;23.052;2023-02-14T04:47:41;94934.75;;;0.67;100.00
8334;BME280;4204;43.004;23.052;2023-02-14T04:50:11;94939.69;;;0.75;100.00
8334;BME280;4204;43.004;23.052;2023-02-14T04:52:40;94942.06;;;0.77;100.00
8334;BME280;4204;43.004;23.052;2023-02-14T04:55:08;94943.22;;;0.81;100.00
8334;BME280;4204;43.004;23.052;2023-02-14T04:57:36;94943.81;;;0.95;100.00
8334;BME280;4204;43.004;23.052;2023-02-14T05:00:06;94935.97;;;1.06;100.00
8334;BME280;4204;43.004;23.052;2023-02-14T05:02:36;94932.31;;;1.19;100.00
8334;BME280;4204;43.004;23.052;2023-02-14T05:05:04;94931.53;;;1.18;100.00
8334;BME280;4204;43.004;23.052;2023-02-14T05:07:31;94945.31;;;1.25;100.00
8334;BME280;4204;43.004;23.052;2023-02-14T05:09:59;94933.03;;;1.26;100.00
8334;BME280;4204;43.004;23.052;2023-02-14T05:12:27;94952.50;;;1.41;100.00
8334;BME280;4204;43.004;23.052;2023-02-14T05:14:55;94938.47;;;1.47;100.00
8334;BME280;4204;43.004;23.052;2023-02-14T05:17:24;94948.50;;;1.50;100.00
8334;BME280;4204;43.004;23.052;2023-02-14T05:19:52;94945.78;;;1.45;100.00
8334;BME280;4204;43.004;23.052;2023-02-14T05:22:19;94928.91;;;1.41;100.00
8334;BME280;4204;43.004;23.052;2023-02-14T05:24:47;94947.03;;;1.54;100.00
8334;BME280;4204;43.004;23.052;2023-02-14T05:27:15;94951.69;;;1.64;100.00
8334;BME280;4204;43.004;23.052;2023-02-14T05:29:43;94947.47;;;1.63;100.00
8334;BME280;4204;43.004;23.052;2023-02-14T05:32:10;94939.94;;;1.67;100.00
8334;BME280;4204;43.004;23.052;2023-02-14T05:34:39;94923.31;;;1.61;100.00
8334;BME280;4204;43.004;23.052;2023-02-14T05:37:07;94941.97;;;1.76;100.00
8334;BME280;4204;43.004;23.052;2023-02-14T05:39:35;94939.59;;;1.75;100.00
8334;BME280;4204;43.004;23.052;2023-02-14T05:42:02;94931.63;;;1.70;100.00
8334;BME280;4204;43.004;23.052;2023-02-14T05:44:30;94933.09;;;1.65;100.00
8334;BME280;4204;43.004;23.052;2023-02-14T05:46:58;94939.03;;;1.73;100.00
8334;BME280;4204;43.004;23.052;2023-02-14T05:49:25;94938.69;;;1.69;100.00
8334;BME280;4204;43.004;23.052;2023-02-14T05:51:54;94946.16;;;1.89;100.00
8334;BME280;4204;43.004;23.052;2023-02-14T05:54:22;94938.31;;;1.89;100.00
8334;BME280;4204;43.004;23.052;2023-02-14T05:56:50;94948.78;;;1.89;100.00
8334;BME280;4204;43.004;23.052;2023-02-14T05:59:18;94954.75;;;1.84;100.00
8334;BME280;4204;43.004;23.052;2023-02-14T06:01:45;94942.31;;;1.80;100.00
8334;BME280;4204;43.004;23.052;2023-02-14T06:04:13;94951.97;;;1.91;100.00
8334;BME280;4204;43.004;23.052;2023-02-14T06:06:41;94950.84;;;1.98;100.00
8334;BME280;4204;43.004;23.052;2023-02-14T06:09:10;94943.41;;;1.95;100.00
8334;BME280;4204;43.004;23.052;2023-02-14T06:11:38;94950.84;;;1.98;100.00
8334;BME280;4204;43.004;23.052;2023-02-14T06:14:05;94944.00;;;1.97;100.00
8334;BME280;4204;43.004;23.052;2023-02-14T06:16:33;94941.94;;;1.99;100.00
8334;BME280;4204;43.004;23.052;2023-02-14T06:19:01;94944.31;;;2.01;100.00
8334;BME280;4204;43.004;23.052;2023-02-14T06:21:29;94940.13;;;2.00;100.00
8334;BME280;4204;43.004;23.052;2023-02-14T06:23:57;94940.00;;;1.95;100.00
8334;BME280;4204;43.004;23.052;2023-02-14T06:26:26;94928.81;;;1.99;100.00
8334;BME280;4204;43.004;23.052;2023-02-14T06:28:54;94948.50;;;2.13;100.00
8334;BME280;4204;43.004;23.052;2023-02-14T06:31:22;94950.19;;;2.19;100.00
8334;BME280;4204;43.004;23.052;2023-02-14T06:33:51;94941.53;;;2.19;100.00
8334;BME280;4204;43.004;23.052;2023-02-14T06:36:19;94943.13;;;2.20;100.00
8334;BME280;4204;43.004;23.052;2023-02-14T06:38:48;94941.31;;;2.20;100.00
8334;BME280;4204;43.004;23.052;2023-02-14T06:41:16;94950.78;;;2.21;100.00
8334;BME280;4204;43.004;23.052;2023-02-14T06:43:46;94946.41;;;2.27;100.00
8334;BME280;4204;43.004;23.052;2023-02-14T06:46:15;94943.25;;;2.25;100.00
8334;BME280;4204;43.004;23.052;2023-02-14T06:48:43;94939.19;;;2.34;100.00
8334;BME280;4204;43.004;23.052;2023-02-14T06:51:11;94933.88;;;2.29;100.00
8334;BME280;4204;43.004;23.052;2023-02-14T06:53:39;94941.59;;;2.35;100.00
8334;BME280;4204;43.004;23.052;2023-02-14T06:56:06;94946.63;;;2.37;100.00
8334;BME280;4204;43.004;23.052;2023-02-14T06:58:34;94933.94;;;2.34;100.00
8334;BME280;4204;43.004;23.052;2023-02-14T07:01:04;94929.03;;;2.37;100.00
8334;BME280;4204;43.004;23.052;2023-02-14T07:03:31;94929.28;;;3.14;100.00
8334;BME280;4204;43.004;23.052;2023-02-14T07:05:59;94921.72;;;2.84;100.00
8334;BME280;4204;43.004;23.052;2023-02-14T07:08:27;94936.22;;;2.87;100.00
8334;BME280;4204;43.004;23.052;2023-02-14T07:10:55;94936.59;;;2.79;100.00
8334;BME280;4204;43.004;23.052;2023-02-14T07:13:23;94943.13;;;2.76;100.00
8334;BME280;4204;43.004;23.052;2023-02-14T07:15:51;94947.34;;;2.77;100.00
8334;BME280;4204;43.004;23.052;2023-02-14T07:18:20;94942.31;;;2.76;100.00
8334;BME280;4204;43.004;23.052;2023-02-14T07:20:48;94948.19;;;2.66;100.00
8334;BME280;4204;43.004;23.052;2023-02-14T07:23:16;94944.53;;;2.67;100.00
8334;BME280;4204;43.004;23.052;2023-02-14T07:25:43;94951.06;;;2.65;100.00
8334;BME280;4204;43.004;23.052;2023-02-14T07:28:11;94940.72;;;2.58;100.00
8334;BME280;4204;43.004;23.052;2023-02-14T07:30:39;94939.47;;;2.49;100.00
8334;BME280;4204;43.004;23.052;2023-02-14T07:33:07;94948.25;;;2.55;100.00
8334;BME280;4204;43.004;23.052;2023-02-14T07:35:36;94937.84;;;2.60;100.00
8334;BME280;4204;43.004;23.052;2023-02-14T07:38:04;94943.22;;;2.53;100.00
8334;BME280;4204;43.004;23.052;2023-02-14T07:40:31;94940.28;;;2.50;100.00
8334;BME280;4204;43.004;23.052;2023-02-14T07:42:59;94937.66;;;2.50;100.00
8334;BME280;4204;43.004;23.052;2023-02-14T07:45:27;94953.41;;;2.50;100.00
8334;BME280;4204;43.004;23.052;2023-02-14T07:47:55;94947.69;;;2.53;100.00
8334;BME280;4204;43.004;23.052;2023-02-14T07:50:28;94942.41;;;2.53;100.00
8334;BME280;4204;43.004;23.052;2023-02-14T07:52:57;94946.09;;;2.52;100.00
8334;BME280;4204;43.004;23.052;2023-02-14T07:55:24;94949.41;;;2.47;100.00
8334;BME280;4204;43.004;23.052;2023-02-14T07:57:52;94945.44;;;2.44;100.00
8334;BME280;4204;43.004;23.052;2023-02-14T08:00:21;94947.22;;;2.56;100.00
8334;BME280;4204;43.004;23.052;2023-02-14T08:02:48;94944.31;;;2.40;100.00
8334;BME280;4204;43.004;23.052;2023-02-14T08:05:16;94944.97;;;2.47;100.00
8334;BME280;4204;43.004;23.052;2023-02-14T08:07:44;94954.09;;;2.45;100.00
8334;BME280;4204;43.004;23.052;2023-02-14T08:10:14;94951.72;;;2.43;100.00
8334;BME280;4204;43.004;23.052;2023-02-14T08:12:41;94962.41;;;2.54;100.00
8334;BME280;4204;43.004;23.052;2023-02-14T08:15:30;94968.91;;;2.63;100.00
8334;BME280;4204;43.004;23.052;2023-02-14T08:18:16;94962.97;;;2.56;100.00
8334;BME280;4204;43.004;23.052;2023-02-14T08:20:44;94968.47;;;2.54;100.00
8334;BME280;4204;43.004;23.052;2023-02-14T08:23:14;94970.59;;;2.57;100.00
8334;BME280;4204;43.004;23.052;2023-02-14T08:25:43;94969.81;;;2.57;100.00
8334;BME280;4204;43.004;23.052;2023-02-14T08:28:11;94969.81;;;2.57;100.00
8334;BME280;4204;43.004;23.052;2023-02-14T08:30:40;94975.66;;;2.59;100.00
8334;BME280;4204;43.004;23.052;2023-02-14T08:33:09;94967.78;;;2.59;100.00
8334;BME280;4204;43.004;23.052;2023-02-14T08:35:37;94963.03;;;2.44;100.00
8334;BME280;4204;43.004;23.052;2023-02-14T08:38:05;94972.81;;;2.48;100.00
8334;BME280;4204;43.004;23.052;2023-02-14T08:40:33;94970.91;;;2.44;100.00
8334;BME280;4204;43.004;23.052;2023-02-14T08:43:03;94976.34;;;2.54;100.00
8334;BME280;4204;43.004;23.052;2023-02-14T08:45:32;94971.47;;;2.46;100.00
8334;BME280;4204;43.004;23.052;2023-02-14T08:48:01;94967.41;;;2.55;100.00
8334;BME280;4204;43.004;23.052;2023-02-14T08:50:29;94969.16;;;2.50;100.00
8334;BME280;4204;43.004;23.052;2023-02-14T08:52:57;94971.31;;;2.53;100.00
8334;BME280;4204;43.004;23.052;2023-02-14T08:55:25;94967.41;;;2.55;100.00
8334;BME280;4204;43.004;23.052;2023-02-14T08:57:54;94979.59;;;2.61;100.00
8334;BME280;4204;43.004;23.052;2023-02-14T09:00:23;94977.53;;;2.63;100.00
8334;BME280;4204;43.004;23.052;2023-02-14T09:02:52;94973.66;;;2.66;100.00
8334;BME280;4204;43.004;23.052;2023-02-14T09:05:20;94980.97;;;2.64;100.00
8334;BME280;4204;43.004;23.052;2023-02-14T09:07:49;94972.44;;;2.57;100.00
8334;BME280;4204;43.004;23.052;2023-02-14T09:10:17;94987.84;;;2.65;100.00
8334;BME280;4204;43.004;23.052;2023-02-14T09:12:44;94974.91;;;2.63;100.00
8334;BME280;4204;43.004;23.052;2023-02-14T09:15:12;94971.03;;;2.66;100.00
8334;BME280;4204;43.004;23.052;2023-02-14T09:17:41;94968.41;;;2.66;100.00
8334;BME280;4204;43.004;23.052;2023-02-14T09:20:10;94963.16;;;2.66;100.00
8334;BME280;4204;43.004;23.052;2023-02-14T09:22:39;94970.59;;;2.57;100.00
8334;BME280;4204;43.004;23.052;2023-02-14T09:25:07;94960.44;;;2.61;100.00
8334;BME280;4204;43.004;23.052;2023-02-14T09:27:34;94963.28;;;2.59;100.00
8334;BME280;4204;43.004;23.052;2023-02-14T09:30:03;94968.50;;;2.71;100.00
8334;BME280;4204;43.004;23.052;2023-02-14T09:32:31;94959.16;;;2.63;100.00
8334;BME280;4204;43.004;23.052;2023-02-14T09:35:01;94952.66;;;2.66;100.00
8334;BME280;4204;43.004;23.052;2023-02-14T09:37:46;94962.44;;;2.70;100.00
8334;BME280;4204;43.004;23.052;2023-02-14T09:40:32;94961.41;;;2.71;100.00
8334;BME280;4204;43.004;23.052;2023-02-14T09:43:05;94960.81;;;2.81;100.00
8334;BME280;4204;43.004;23.052;2023-02-14T09:45:37;94963.00;;;2.72;100.00
8334;BME280;4204;43.004;23.052;2023-02-14T09:48:10;94953.53;;;2.71;100.00
8334;BME280;4204;43.004;23.052;2023-02-14T09:50:44;94943.50;;;2.68;100.00
8334;BME280;4204;43.004;23.052;2023-02-14T09:53:28;94936.34;;;2.64;100.00
8334;BME280;4204;43.004;23.052;2023-02-14T09:56:04;94943.25;;;2.70;100.00
8334;BME280;4204;43.004;23.052;2023-02-14T09:58:37;94936.25;;;2.75;100.00
8334;BME280;4204;43.004;23.052;2023-02-14T10:01:14;94930.53;;;2.78;100.00
8334;BME280;4204;43.004;23.052;2023-02-14T10:06:48;94935.47;;;2.75;100.00
8334;BME280;4204;43.004;23.052;2023-02-14T10:09:40;94935.94;;;2.72;100.00
8334;BME280;4204;43.004;23.052;2023-02-14T10:12:20;94934.22;;;2.77;100.00
8334;BME280;4204;43.004;23.052;2023-02-14T10:14:51;94934.84;;;2.84;100.00
8334;BME280;4204;43.004;23.052;2023-02-14T10:17:25;94938.34;;;2.90;100.00
8334;BME280;4204;43.004;23.052;2023-02-14T10:19:59;94927.66;;;2.80;100.00
8334;BME280;4204;43.004;23.052;2023-02-14T10:22:36;94935.25;;;2.76;100.00
8334;BME280;4204;43.004;23.052;2023-02-14T10:25:13;94926.25;;;2.72;100.00
8334;BME280;4204;43.004;23.052;2023-02-14T10:27:45;94934.69;;;2.74;100.00
8334;BME280;4204;43.004;23.052;2023-02-14T10:30:15;94922.56;;;2.73;100.00
8334;BME280;4204;43.004;23.052;2023-02-14T10:32:46;94934.94;;;2.73;100.00
8334;BME280;4204;43.004;23.052;2023-02-14T10:35:22;94931.25;;;2.74;100.00
8334;BME280;4204;43.004;23.052;2023-02-14T10:38:03;94929.28;;;2.81;100.00
8334;BME280;4204;43.004;23.052;2023-02-14T10:40:53;94919.56;;;2.81;100.00
8334;BME280;4204;43.004;23.052;2023-02-14T10:43:31;94916.94;;;2.81;100.00
8334;BME280;4204;43.004;23.052;2023-02-14T10:46:08;94912.72;;;2.80;100.00
8334;BME280;4204;43.004;23.052;2023-02-14T10:48:47;94902.06;;;2.87;100.00
8334;BME280;4204;43.004;23.052;2023-02-14T10:51:21;94909.69;;;2.88;100.00
8334;BME280;4204;43.004;23.052;2023-02-14T10:54:08;94907.94;;;2.94;100.00
8334;BME280;4204;43.004;23.052;2023-02-14T10:56:44;94906.66;;;2.96;100.00
8334;BME280;4204;43.004;23.052;2023-02-14T10:59:18;94897.19;;;2.95;100.00
8334;BME280;4204;43.004;23.052;2023-02-14T11:01:49;94894.06;;;2.98;100.00
8334;BME280;4204;43.004;23.052;2023-02-14T11:04:21;94894.41;;;3.02;100.00
8334;BME280;4204;43.004;23.052;2023-02-14T11:06:50;94890.44;;;2.99;100.00
8334;BME280;4204;43.004;23.052;2023-02-14T11:09:19;94879.75;;;3.06;100.00
8334;BME280;4204;43.004;23.052;2023-02-14T11:11:49;94889.94;;;3.02;100.00
8334;BME280;4204;43.004;23.052;2023-02-14T11:14:20;94878.47;;;3.08;100.00
8334;BME280;4204;43.004;23.052;2023-02-14T11:16:49;94862.16;;;2.90;100.00
8334;BME280;4204;43.004;23.052;2023-02-14T11:19:20;94885.97;;;3.16;100.00
8334;BME280;4204;43.004;23.052;2023-02-14T11:21:49;94886.28;;;3.20;100.00
8334;BME280;4204;43.004;23.052;2023-02-14T11:24:29;94893.03;;;3.33;100.00
8334;BME280;4204;43.004;23.052;2023-02-14T11:26:59;94887.78;;;3.33;100.00
8334;BME280;4204;43.004;23.052;2023-02-14T11:29:30;94870.34;;;3.26;100.00
8334;BME280;4204;43.004;23.052;2023-02-14T11:32:06;94896.22;;;3.35;100.00
8334;BME280;4204;43.004;23.052;2023-02-14T11:34:36;94891.00;;;3.40;100.00
8334;BME280;4204;43.004;23.052;2023-02-14T11:37:16;94888.38;;;3.40;100.00
8334;BME280;4204;43.004;23.052;2023-02-14T11:39:46;94882.56;;;3.38;100.00
8334;BME280;4204;43.004;23.052;2023-02-14T11:42:31;94874.59;;;3.49;100.00
8334;BME280;4204;43.004;23.052;2023-02-14T11:44:59;94867.91;;;3.42;100.00
8334;BME280;4204;43.004;23.052;2023-02-14T11:47:28;94871.88;;;3.44;100.00
8334;BME280;4204;43.004;23.052;2023-02-14T11:49:59;94865.91;;;3.49;100.00
8334;BME280;4204;43.004;23.052;2023-02-14T11:52:27;94866.94;;;3.48;100.00
8334;BME280;4204;43.004;23.052;2023-02-14T11:54:58;94865.09;;;3.48;100.00
8334;BME280;4204;43.004;23.052;2023-02-14T11:57:27;94867.72;;;3.48;100.00
8334;BME280;4204;43.004;23.052;2023-02-14T11:59:58;94861.56;;;3.59;100.00
8334;BME280;4204;43.004;23.052;2023-02-14T12:02:31;94864.81;;;3.66;100.00
8334;BME280;4204;43.004;23.052;2023-02-14T12:05:06;94858.03;;;3.70;100.00
8334;BME280;4204;43.004;23.052;2023-02-14T12:07:43;94854.91;;;3.73;100.00
8334;BME280;4204;43.004;23.052;2023-02-14T12:10:23;94858.34;;;3.74;100.00
8334;BME280;4204;43.004;23.052;2023-02-14T12:12:57;94836.66;;;3.67;100.00
8334;BME280;4204;43.004;23.052;2023-02-14T12:15:30;94842.44;;;3.64;100.00
8334;BME280;4204;43.004;23.052;2023-02-14T12:18:18;94839.13;;;3.73;100.00
8334;BME280;4204;43.004;23.052;2023-02-14T12:20:53;94843.03;;;3.71;100.00
8334;BME280;4204;43.004;23.052;2023-02-14T12:23:26;94825.59;;;3.65;100.00
8334;BME280;4204;43.004;23.052;2023-02-14T12:26:00;94839.41;;;3.77;100.00
8334;BME280;4204;43.004;23.052;2023-02-14T12:28:35;94843.09;;;3.76;100.00
8334;BME280;4204;43.004;23.052;2023-02-14T12:31:08;94838.38;;;3.78;100.00
8334;BME280;4204;43.004;23.052;2023-02-14T12:33:37;94840.94;;;3.73;100.00
8334;BME280;4204;43.004;23.052;2023-02-14T12:36:11;94830.97;;;3.75;100.00
8334;BME280;4204;43.004;23.052;2023-02-14T12:38:51;94821.53;;;3.79;100.00
8334;BME280;4204;43.004;23.052;2023-02-14T12:41:31;94847.84;;;3.79;100.00
8334;BME280;4204;43.004;23.052;2023-02-14T12:44:09;94837.34;;;3.79;100.00
8334;BME280;4204;43.004;23.052;2023-02-14T12:46:52;94844.19;;;3.80;100.00
8334;BME280;4204;43.004;23.052;2023-02-14T12:49:36;94833.16;;;3.83;100.00
8334;BME280;4204;43.004;23.052;2023-02-14T12:52:22;94840.84;;;3.84;100.00
8334;BME280;4204;43.004;23.052;2023-02-14T12:55:04;94832.88;;;3.79;100.00
8334;BME280;4204;43.004;23.052;2023-02-14T12:57:44;94827.88;;;3.78;100.00
8334;BME280;4204;43.004;23.052;2023-02-14T13:00:22;94834.78;;;3.84;100.00
8334;BME280;4204;43.004;23.052;2023-02-14T13:03:24;94834.28;;;3.87;100.00
8334;BME280;4204;43.004;23.052;2023-02-14T13:05:59;94838.03;;;3.69;100.00
8334;BME280;4204;43.004;23.052;2023-02-14T13:08:43;94840.91;;;3.68;100.00
8334;BME280;4204;43.004;23.052;2023-02-14T13:11:21;94836.75;;;3.72;100.00
8334;BME280;4204;43.004;23.052;2023-02-14T13:14:03;94834.91;;;3.72;100.00
8334;BME280;4204;43.004;23.052;2023-02-14T13:16:38;94831.72;;;3.70;100.00
8334;BME280;4204;43.004;23.052;2023-02-14T13:19:20;94841.72;;;3.68;100.00
8334;BME280;4204;43.004;23.052;2023-02-14T13:21:55;94828.88;;;3.77;100.00
8334;BME280;4204;43.004;23.052;2023-02-14T13:24:27;94820.78;;;3.78;100.00
8334;BME280;4204;43.004;23.052;2023-02-14T13:26:59;94822.66;;;3.83;100.00
8334;BME280;4204;43.004;23.052;2023-02-14T13:29:32;94816.34;;;3.84;100.00
8334;BME280;4204;43.004;23.052;2023-02-14T13:32:02;94819.47;;;3.81;100.00
8334;BME280;4204;43.004;23.052;2023-02-14T13:34:32;94825.81;;;3.85;100.00
8334;BME280;4204;43.004;23.052;2023-02-14T13:37:02;94823.00;;;3.91;100.00
8334;BME280;4204;43.004;23.052;2023-02-14T13:39:34;94816.28;;;3.79;100.00
8334;BME280;4204;43.004;23.052;2023-02-14T13:42:04;94816.84;;;3.81;100.00
8334;BME280;4204;43.004;23.052;2023-02-14T13:44:46;94818.44;;;3.82;100.00
8334;BME280;4204;43.004;23.052;2023-02-14T13:47:16;94819.47;;;3.81;100.00
8334;BME280;4204;43.004;23.052;2023-02-14T13:49:47;94827.44;;;3.86;100.00